createdAt,value
2022-08-17T00:00:43.570Z,10.15
2022-08-17T00:01:52.771Z,9.35
2022-08-17T00:03:13.634Z,10.05
2022-08-17T00:04:20.088Z,11.10
2022-08-17T00:05:21.965Z,9.32
2022-08-17T00:06:29.664Z,9.45
2022-08-17T00:07:31.594Z,9.98
2022-08-17T00:08:36.794Z,11.10
2022-08-17T00:09:38.956Z,12.00
2022-08-17T00:10:41.618Z,10.15
2022-08-17T00:12:40.385Z,9.32
2022-08-17T00:13:11.442Z,10.25
2022-08-17T00:14:18.673Z,9.80
2022-08-17T00:15:22.412Z,11.80
2022-08-17T00:16:56.224Z,11.48
2022-08-17T00:17:55.953Z,11.38
2022-08-17T00:19:08.238Z,9.00
2022-08-17T00:20:12.172Z,11.77
2022-08-17T00:21:16.148Z,12.30
2022-08-17T00:22:34.704Z,12.40
2022-08-17T00:23:38.765Z,11.10
2022-08-17T00:24:46.157Z,8.90
2022-08-17T00:25:48.720Z,10.95
2022-08-17T00:26:50.381Z,13.45
2022-08-17T00:27:53.059Z,11.27
2022-08-17T00:28:56.273Z,11.00
2022-08-17T00:29:59.289Z,11.30
2022-08-17T00:31:01.805Z,13.32
2022-08-17T00:33:23.147Z,14.70
2022-08-17T00:33:30.559Z,10.52
2022-08-17T00:34:32.601Z,11.00
2022-08-17T00:35:35.451Z,10.88
2022-08-17T00:36:37.358Z,12.27
2022-08-17T00:37:39.464Z,13.27
2022-08-17T00:38:42.149Z,12.30
2022-08-17T00:39:46.337Z,12.02
2022-08-17T00:40:55.915Z,10.13
2022-08-17T00:42:01.045Z,12.23
2022-08-17T00:43:26.447Z,11.73
2022-08-17T00:44:30.284Z,10.82
2022-08-17T00:45:32.931Z,11.52
2022-08-17T00:46:39.204Z,9.95
2022-08-17T00:47:41.680Z,11.93
2022-08-17T00:48:44.231Z,8.75
2022-08-17T00:49:46.035Z,10.15
2022-08-17T00:51:19.907Z,11.82
2022-08-17T00:52:24.947Z,10.40
2022-08-17T00:53:29.855Z,8.40
2022-08-17T00:54:41.788Z,13.13
2022-08-17T00:55:45.309Z,10.82
2022-08-17T00:56:51.201Z,10.80
2022-08-17T00:57:58.557Z,10.38
2022-08-17T00:59:02.478Z,10.05
2022-08-17T01:00:10.924Z,8.43
2022-08-17T01:01:21.513Z,11.75
2022-08-17T01:02:26.777Z,8.93
2022-08-17T01:03:29.684Z,9.90
2022-08-17T01:04:32.826Z,9.27
2022-08-17T01:05:38.384Z,10.27
2022-08-17T01:06:49.509Z,11.73
2022-08-17T01:07:53.553Z,11.10
2022-08-17T01:08:58.030Z,9.02
2022-08-17T01:10:03.912Z,10.75
2022-08-17T01:11:07.326Z,9.60
2022-08-17T01:12:10.317Z,10.90
2022-08-17T01:13:12.901Z,10.63
2022-08-17T01:14:14.657Z,11.65
2022-08-17T01:15:16.814Z,9.93
2022-08-17T01:16:23.066Z,10.43
2022-08-17T01:17:24.777Z,10.55
2022-08-17T01:18:27.404Z,11.23
2022-08-17T01:19:35.834Z,9.60
2022-08-17T01:20:48.626Z,10.68
2022-08-17T01:22:00.823Z,10.15
2022-08-17T01:23:02.499Z,10.10
2022-08-17T01:24:04.575Z,10.73
2022-08-17T01:25:08.559Z,11.38
2022-08-17T01:26:10.334Z,11.77
2022-08-17T01:27:14.134Z,9.82
2022-08-17T01:28:52.688Z,11.02
2022-08-17T01:31:59.569Z,10.80
2022-08-17T01:33:01.239Z,10.60
2022-08-17T01:34:10.630Z,11.57
2022-08-17T01:35:12.495Z,8.95
2022-08-17T01:36:14.557Z,8.88
2022-08-17T01:37:17.768Z,10.02
2022-08-17T01:38:19.710Z,13.80
2022-08-17T01:39:31.705Z,12.55
2022-08-17T01:40:37.677Z,11.35
2022-08-17T01:41:41.021Z,11.23
2022-08-17T01:42:51.927Z,9.05
2022-08-17T01:44:04.102Z,11.65
2022-08-17T01:45:20.760Z,9.50
2022-08-17T01:46:29.092Z,11.40
2022-08-17T01:47:31.114Z,9.77
2022-08-17T01:48:36.352Z,9.02
2022-08-17T01:49:38.436Z,10.48
2022-08-17T01:50:42.802Z,9.27
2022-08-17T01:51:44.562Z,8.60
2022-08-17T01:52:49.356Z,9.60
2022-08-17T01:53:55.436Z,8.13
2022-08-17T01:54:57.325Z,8.23
2022-08-17T01:56:05.250Z,8.63
2022-08-17T01:57:07.551Z,8.20
2022-08-17T01:58:09.872Z,9.73
2022-08-17T01:59:12.872Z,11.50
2022-08-17T02:00:14.989Z,7.75
2022-08-17T02:01:22.932Z,11.05
2022-08-17T02:02:30.447Z,10.32
2022-08-17T02:03:36.394Z,10.82
2022-08-17T02:04:38.076Z,9.85
2022-08-17T02:05:40.441Z,8.45
2022-08-17T02:06:54.163Z,10.25
2022-08-17T02:07:59.521Z,10.93
2022-08-17T02:09:03.794Z,7.57
2022-08-17T02:10:19.828Z,10.05
2022-08-17T02:11:22.467Z,8.55
2022-08-17T02:12:38.814Z,11.35
2022-08-17T02:13:41.990Z,7.40
2022-08-17T02:14:44.062Z,8.52
2022-08-17T02:15:46.552Z,9.45
2022-08-17T02:16:48.296Z,9.85
2022-08-17T02:17:50.029Z,11.43
2022-08-17T02:18:56.546Z,7.57
2022-08-17T02:19:58.223Z,9.98
2022-08-17T02:21:00.270Z,9.57
2022-08-17T02:22:01.928Z,11.25
2022-08-17T02:23:04.663Z,8.07
2022-08-17T02:24:15.000Z,10.75
2022-08-17T02:25:19.212Z,10.95
2022-08-17T02:26:24.059Z,9.50
2022-08-17T02:27:28.410Z,10.98
2022-08-17T02:28:30.711Z,10.20
2022-08-17T02:29:32.528Z,9.32
2022-08-17T02:31:01.301Z,10.43
2022-08-17T02:31:58.645Z,10.20
2022-08-17T02:33:00.729Z,11.13
2022-08-17T02:34:06.264Z,11.48
2022-08-17T02:35:08.955Z,11.63
2022-08-17T02:36:12.701Z,9.38
2022-08-17T02:37:17.307Z,10.00
2022-08-17T02:38:18.998Z,8.80
2022-08-17T02:39:20.781Z,10.13
2022-08-17T02:40:35.794Z,10.63
2022-08-17T02:41:39.330Z,12.15
2022-08-17T02:42:44.309Z,10.38
2022-08-17T02:43:45.963Z,12.57
2022-08-17T02:44:47.972Z,9.50
2022-08-17T02:45:49.672Z,9.45
2022-08-17T02:46:53.070Z,10.88
2022-08-17T02:47:54.967Z,9.00
2022-08-17T02:48:57.014Z,9.73
2022-08-17T02:49:58.691Z,10.93
2022-08-17T02:51:01.175Z,11.70
2022-08-17T02:52:04.899Z,11.68
2022-08-17T02:53:06.749Z,12.32
2022-08-17T02:54:41.368Z,10.73
2022-08-17T02:55:34.358Z,8.55
2022-08-17T02:56:36.055Z,9.80
2022-08-17T02:57:37.975Z,11.23
2022-08-17T02:58:39.645Z,12.45
2022-08-17T02:59:48.341Z,9.65
2022-08-17T03:00:50.672Z,10.07
2022-08-17T03:01:52.430Z,8.57
2022-08-17T03:03:19.260Z,10.40
2022-08-17T03:04:22.681Z,9.80
2022-08-17T03:05:27.415Z,9.85
2022-08-17T03:06:29.633Z,13.07
2022-08-17T03:07:31.768Z,12.07
2022-08-17T03:08:34.029Z,9.65
2022-08-17T03:09:35.689Z,9.88
2022-08-17T03:10:37.337Z,11.30
2022-08-17T03:11:39.091Z,11.55
2022-08-17T03:12:42.218Z,9.80
2022-08-17T03:13:43.963Z,9.38
2022-08-17T03:14:46.062Z,11.60
2022-08-17T03:15:48.722Z,12.95
2022-08-17T03:16:50.390Z,10.40
2022-08-17T03:17:53.408Z,9.77
2022-08-17T03:18:55.158Z,11.38
2022-08-17T03:19:57.056Z,10.00
2022-08-17T03:21:00.998Z,12.32
2022-08-17T03:22:35.583Z,10.65
2022-08-17T03:23:29.644Z,11.23
2022-08-17T03:24:32.042Z,10.27
2022-08-17T03:25:37.377Z,9.57
2022-08-17T03:26:40.473Z,10.23
2022-08-17T03:27:42.357Z,10.90
2022-08-17T03:28:49.923Z,11.00
2022-08-17T03:29:51.586Z,11.00
2022-08-17T03:30:53.370Z,12.55
2022-08-17T03:31:55.010Z,13.32
2022-08-17T03:33:00.087Z,12.45
2022-08-17T03:34:01.786Z,11.43
2022-08-17T03:35:03.723Z,11.63
2022-08-17T03:36:06.880Z,12.18
2022-08-17T03:37:08.919Z,13.15
2022-08-17T03:38:15.262Z,11.50
2022-08-17T03:39:17.889Z,12.95
2022-08-17T03:40:37.005Z,14.10
2022-08-17T03:41:42.032Z,12.40
2022-08-17T03:42:44.156Z,10.85
2022-08-17T03:43:46.899Z,11.45
2022-08-17T03:44:52.887Z,12.98
2022-08-17T03:46:27.823Z,12.55
2022-08-17T03:47:55.251Z,13.27
2022-08-17T03:49:15.865Z,13.18
2022-08-17T03:50:37.343Z,10.27
2022-08-17T03:51:57.818Z,9.70
2022-08-17T03:53:18.703Z,10.60
2022-08-17T03:54:39.210Z,11.27
2022-08-17T03:55:59.690Z,9.65
2022-08-17T03:57:03.084Z,7.88
2022-08-17T03:58:04.742Z,9.50
2022-08-17T03:59:06.406Z,10.55
2022-08-17T04:00:22.691Z,9.60
2022-08-17T04:01:24.870Z,11.77
2022-08-17T04:02:31.620Z,11.60
2022-08-17T04:03:35.993Z,13.70
2022-08-17T04:04:39.307Z,13.57
2022-08-17T04:05:41.406Z,11.43
2022-08-17T04:06:43.356Z,10.20
2022-08-17T04:07:45.094Z,11.13
2022-08-17T04:08:46.849Z,12.15
2022-08-17T04:09:49.069Z,10.85
2022-08-17T04:10:50.814Z,10.10
2022-08-17T04:11:53.130Z,11.50
2022-08-17T04:12:55.937Z,11.48
2022-08-17T04:13:57.704Z,12.00
2022-08-17T04:14:59.820Z,12.82
2022-08-17T04:16:01.900Z,10.65
2022-08-17T04:17:06.386Z,11.15
2022-08-17T04:18:08.030Z,11.10
2022-08-17T04:19:12.878Z,12.00
2022-08-17T04:20:17.233Z,11.10
2022-08-17T04:21:20.140Z,9.80
2022-08-17T04:22:32.258Z,11.15
2022-08-17T04:23:36.667Z,12.57
2022-08-17T04:24:38.351Z,11.95
2022-08-17T04:25:43.826Z,12.35
2022-08-17T04:26:50.595Z,11.90
2022-08-17T04:27:56.955Z,13.02
2022-08-17T04:28:59.127Z,11.25
2022-08-17T04:30:01.614Z,9.88
2022-08-17T04:31:03.290Z,14.15
2022-08-17T04:32:05.432Z,12.52
2022-08-17T04:33:10.563Z,14.13
2022-08-17T04:34:12.738Z,13.45
2022-08-17T04:35:19.443Z,13.05
2022-08-17T04:36:22.092Z,12.10
2022-08-17T04:37:23.790Z,13.23
2022-08-17T04:38:32.952Z,11.93
2022-08-17T04:39:34.871Z,14.20
2022-08-17T04:40:56.125Z,12.05
2022-08-17T04:42:06.848Z,9.85
2022-08-17T04:43:11.875Z,10.50
2022-08-17T04:44:13.642Z,13.35
2022-08-17T04:45:39.693Z,15.43
2022-08-17T04:46:41.344Z,14.10
2022-08-17T04:47:43.003Z,12.00
2022-08-17T04:48:48.365Z,13.77
2022-08-17T04:49:50.287Z,13.27
2022-08-17T04:50:52.074Z,13.38
2022-08-17T04:51:55.693Z,12.75
2022-08-17T04:52:58.436Z,13.15
2022-08-17T04:54:04.468Z,14.88
2022-08-17T04:55:06.647Z,13.05
2022-08-17T04:56:11.854Z,15.85
2022-08-17T04:57:18.784Z,11.85
2022-08-17T04:58:21.585Z,16.58
2022-08-17T04:59:23.356Z,14.10
2022-08-17T05:00:25.991Z,12.32
2022-08-17T05:01:30.070Z,13.18
2022-08-17T05:02:32.667Z,13.32
2022-08-17T05:03:35.415Z,13.75
2022-08-17T05:04:37.232Z,15.60
2022-08-17T05:05:43.261Z,12.07
2022-08-17T05:06:46.819Z,12.25
2022-08-17T05:07:50.943Z,15.10
2022-08-17T05:08:53.238Z,15.65
2022-08-17T05:09:54.878Z,12.68
2022-08-17T05:10:57.067Z,15.18
2022-08-17T05:12:02.643Z,13.50
2022-08-17T05:13:05.714Z,12.55
2022-08-17T05:14:07.448Z,13.68
2022-08-17T05:15:16.129Z,13.48
2022-08-17T05:16:19.524Z,13.70
2022-08-17T05:17:21.210Z,15.00
2022-08-17T05:18:24.665Z,12.02
2022-08-17T05:19:26.485Z,14.73
2022-08-17T05:20:28.846Z,13.50
2022-08-17T05:21:30.913Z,13.98
2022-08-17T05:22:32.759Z,14.95
2022-08-17T05:23:42.616Z,13.00
2022-08-17T05:24:53.922Z,14.00
2022-08-17T05:25:58.166Z,14.20
2022-08-17T05:27:06.062Z,14.57
2022-08-17T05:28:09.532Z,11.98
2022-08-17T05:29:11.346Z,12.20
2022-08-17T05:30:14.085Z,13.60
2022-08-17T05:31:16.522Z,16.05
2022-08-17T05:32:38.880Z,11.65
2022-08-17T05:33:46.243Z,13.57
2022-08-17T05:34:48.584Z,14.48
2022-08-17T05:35:54.459Z,13.80
2022-08-17T05:36:56.337Z,13.60
2022-08-17T05:37:58.270Z,16.75
2022-08-17T05:39:00.385Z,15.85
2022-08-17T05:40:02.169Z,17.30
2022-08-17T05:41:06.706Z,11.82
2022-08-17T05:42:09.396Z,14.25
2022-08-17T05:43:17.217Z,13.95
2022-08-17T05:44:18.934Z,16.83
2022-08-17T05:45:54.504Z,15.43
2022-08-17T05:46:48.932Z,14.30
2022-08-17T05:47:51.437Z,14.82
2022-08-17T05:48:59.068Z,12.95
2022-08-17T05:50:02.023Z,15.50
2022-08-17T05:51:22.809Z,17.08
2022-08-17T05:52:30.069Z,16.00
2022-08-17T05:54:09.600Z,16.50
2022-08-17T05:55:25.838Z,13.80
2022-08-17T05:56:33.197Z,16.35
2022-08-17T05:57:39.874Z,14.88
2022-08-17T05:59:06.768Z,12.80
2022-08-17T06:00:30.107Z,13.68
2022-08-17T06:01:52.645Z,13.25
2022-08-17T06:03:07.260Z,11.45
2022-08-17T06:04:36.746Z,13.50
2022-08-17T06:06:05.844Z,15.32
2022-08-17T06:07:21.434Z,16.20
2022-08-17T06:08:35.372Z,14.95
2022-08-17T06:10:12.439Z,12.52
2022-08-17T06:11:20.461Z,15.07
2022-08-17T06:12:47.338Z,15.35
2022-08-17T06:14:09.855Z,12.60
2022-08-17T06:15:26.341Z,15.30
2022-08-17T06:16:35.431Z,14.43
2022-08-17T06:17:37.962Z,17.05
2022-08-17T06:18:46.381Z,16.83
2022-08-17T06:19:54.723Z,13.95
2022-08-17T06:21:07.157Z,13.25
2022-08-17T06:22:12.892Z,12.18
2022-08-17T06:23:22.738Z,13.77
2022-08-17T06:24:40.398Z,10.60
2022-08-17T06:25:49.790Z,10.57
2022-08-17T06:26:53.733Z,11.23
2022-08-17T06:28:08.442Z,11.38
2022-08-17T06:30:09.124Z,13.10
2022-08-17T06:31:20.089Z,12.43
2022-08-17T06:32:22.891Z,11.40
2022-08-17T06:33:37.662Z,15.75
2022-08-17T06:34:42.824Z,13.68
2022-08-17T06:36:15.783Z,11.93
2022-08-17T06:37:51.692Z,11.45
2022-08-17T06:39:31.581Z,10.73
2022-08-17T06:41:11.380Z,10.90
2022-08-17T06:42:54.996Z,12.32
2022-08-17T06:43:51.250Z,11.50
2022-08-17T06:45:03.225Z,11.35
2022-08-17T06:46:31.228Z,11.35
2022-08-17T06:48:06.165Z,12.63
2022-08-17T06:49:28.581Z,10.82
2022-08-17T06:50:42.100Z,11.90
2022-08-17T06:51:51.894Z,11.15
2022-08-17T06:53:17.646Z,10.50
2022-08-17T06:54:36.732Z,7.72
2022-08-17T06:56:01.888Z,11.27
2022-08-17T06:57:23.228Z,8.27
2022-08-17T06:58:29.563Z,12.45
2022-08-17T06:59:55.924Z,10.80
2022-08-17T07:01:10.788Z,11.02
2022-08-17T07:02:20.105Z,13.73
2022-08-17T07:03:59.019Z,11.98
2022-08-17T07:05:07.672Z,11.23
2022-08-17T07:06:21.877Z,9.63
2022-08-17T07:07:42.179Z,9.60
2022-08-17T07:09:02.350Z,11.85
2022-08-17T07:10:04.337Z,12.57
2022-08-17T07:11:13.039Z,11.38
2022-08-17T07:12:18.501Z,10.05
2022-08-17T07:13:33.916Z,10.82
2022-08-17T07:14:59.366Z,10.43
2022-08-17T07:16:13.138Z,9.65
2022-08-17T07:17:18.284Z,8.95
2022-08-17T07:18:20.844Z,11.75
2022-08-17T07:19:31.775Z,13.07
2022-08-17T07:20:34.776Z,10.95
2022-08-17T07:22:03.580Z,10.10
2022-08-17T07:23:26.113Z,7.80
2022-08-17T07:24:30.900Z,8.75
2022-08-17T07:25:33.063Z,9.88
2022-08-17T07:26:34.801Z,10.05
2022-08-17T07:27:51.110Z,10.38
2022-08-17T07:28:56.231Z,8.85
2022-08-17T07:30:03.770Z,9.48
2022-08-17T07:31:13.286Z,9.52
2022-08-17T07:32:18.978Z,7.85
2022-08-17T07:33:30.965Z,10.88
2022-08-17T07:35:11.123Z,9.93
2022-08-17T07:36:29.605Z,10.57
2022-08-17T07:37:34.242Z,11.80
2022-08-17T07:38:54.260Z,8.93
2022-08-17T07:40:15.261Z,9.35
2022-08-17T07:41:20.751Z,9.02
2022-08-17T07:42:22.593Z,7.72
2022-08-17T07:43:26.380Z,10.32
2022-08-17T07:44:31.448Z,10.93
2022-08-17T07:45:53.451Z,9.20
2022-08-17T07:47:14.654Z,9.93
2022-08-17T07:48:21.085Z,9.85
2022-08-17T07:49:31.691Z,8.13
2022-08-17T07:50:33.839Z,8.25
2022-08-17T07:51:37.861Z,7.50
2022-08-17T07:52:47.738Z,8.48
2022-08-17T07:54:09.086Z,8.13
2022-08-17T07:55:34.840Z,8.35
2022-08-17T07:56:45.768Z,10.23
2022-08-17T07:57:57.408Z,8.45
2022-08-17T07:59:27.267Z,7.72
2022-08-17T08:00:37.133Z,7.15
2022-08-17T08:01:41.784Z,11.23
2022-08-17T08:02:47.275Z,7.20
2022-08-17T08:03:51.048Z,7.53
2022-08-17T08:05:06.650Z,8.10
2022-08-17T08:06:23.092Z,7.13
2022-08-17T08:07:30.359Z,8.55
2022-08-17T08:08:40.694Z,8.77
2022-08-17T08:10:00.808Z,8.13
2022-08-17T08:11:11.813Z,8.70
2022-08-17T08:12:38.169Z,7.80
2022-08-17T08:13:43.860Z,7.60
2022-08-17T08:14:56.432Z,8.00
2022-08-17T08:16:16.768Z,9.50
2022-08-17T08:17:34.217Z,9.40
2022-08-17T08:18:55.465Z,9.82
2022-08-17T08:20:00.497Z,8.88
2022-08-17T08:21:30.940Z,10.30
2022-08-17T08:22:43.382Z,9.07
2022-08-17T08:23:50.437Z,10.52
2022-08-17T08:25:21.504Z,9.48
2022-08-17T08:26:44.395Z,9.55
2022-08-17T08:27:57.036Z,8.63
2022-08-17T08:29:47.579Z,8.05
2022-08-17T08:30:58.462Z,9.07
2022-08-17T08:32:39.502Z,9.25
2022-08-17T08:34:09.310Z,8.60
2022-08-17T08:35:55.090Z,8.80
2022-08-17T08:37:17.653Z,8.73
2022-08-17T08:38:37.767Z,10.23
2022-08-17T08:39:52.029Z,9.32
2022-08-17T08:41:12.248Z,9.32
2022-08-17T08:42:55.231Z,8.35
2022-08-17T08:44:11.999Z,7.28
2022-08-17T11:57:29.414Z,7.32
2022-08-17T11:58:33.647Z,6.70
2022-08-17T11:59:45.795Z,6.75
2022-08-17T12:00:50.301Z,7.82
2022-08-17T12:01:57.074Z,8.25
2022-08-17T12:03:28.057Z,8.40
2022-08-17T12:04:33.011Z,8.90
2022-08-17T12:05:35.296Z,8.45
2022-08-17T12:07:08.359Z,9.15
2022-08-17T12:08:18.487Z,9.18
2022-08-17T12:09:27.955Z,9.70
2022-08-17T12:10:32.569Z,8.13
2022-08-17T12:12:15.911Z,10.02
2022-08-17T12:13:30.488Z,8.10
2022-08-17T12:15:08.939Z,8.98
2022-08-17T12:16:10.984Z,7.90
2022-08-17T12:17:39.756Z,7.95
2022-08-17T12:18:42.209Z,7.60
2022-08-17T12:19:43.921Z,7.60
2022-08-17T12:20:56.543Z,9.18
2022-08-17T12:22:25.529Z,9.00
2022-08-17T12:23:45.348Z,9.23
2022-08-17T12:24:54.557Z,6.85
2022-08-17T12:26:11.694Z,8.73
2022-08-17T12:27:46.098Z,6.93
2022-08-17T12:28:50.653Z,8.90
2022-08-17T12:29:58.168Z,7.13
2022-08-17T12:31:15.388Z,8.00
2022-08-17T12:32:22.272Z,7.57
2022-08-17T12:33:28.408Z,9.02
2022-08-17T12:34:39.241Z,8.98
2022-08-17T12:35:41.637Z,7.38
2022-08-17T12:36:53.634Z,9.65
2022-08-17T12:37:59.865Z,7.32
2022-08-17T12:39:13.786Z,7.70
2022-08-17T12:40:22.647Z,8.27
2022-08-17T12:41:43.931Z,6.78
2022-08-17T12:42:59.958Z,6.30
2022-08-17T12:44:13.435Z,8.50
2022-08-17T12:45:46.263Z,8.10
2022-08-17T12:46:48.284Z,7.50
2022-08-17T12:48:07.612Z,8.73
2022-08-17T12:49:22.612Z,6.97
2022-08-17T12:50:29.158Z,8.60
2022-08-17T12:51:31.717Z,7.90
2022-08-17T12:52:37.370Z,9.15
2022-08-17T12:53:53.832Z,9.93
2022-08-17T12:55:02.356Z,8.32
2022-08-17T12:56:11.868Z,7.95
2022-08-17T12:57:22.888Z,7.70
2022-08-17T12:58:30.434Z,5.95
2022-08-17T12:59:33.195Z,6.85
2022-08-17T13:00:38.119Z,7.30
2022-08-17T13:01:42.096Z,7.90
2022-08-17T13:02:48.662Z,7.78
2022-08-17T13:03:55.351Z,7.55
2022-08-17T13:05:00.313Z,9.45
2022-08-17T13:06:06.438Z,6.80
2022-08-17T13:07:08.241Z,7.70
2022-08-17T13:08:17.678Z,9.13
2022-08-17T13:09:36.060Z,8.88
2022-08-17T13:10:43.034Z,7.20
2022-08-17T13:11:53.474Z,7.60
2022-08-17T13:12:55.890Z,7.82
2022-08-17T13:14:09.205Z,8.48
2022-08-17T13:15:21.117Z,7.43
2022-08-17T13:16:27.691Z,8.05
2022-08-17T13:17:35.925Z,8.90
2022-08-17T13:18:44.914Z,7.78
2022-08-17T13:19:51.070Z,8.52
2022-08-17T13:20:54.237Z,7.10
2022-08-17T13:21:59.393Z,9.20
2022-08-17T13:23:11.398Z,8.23
2022-08-17T13:24:38.132Z,8.98
2022-08-17T13:25:40.447Z,9.07
2022-08-17T13:26:42.056Z,8.02
2022-08-17T13:27:44.999Z,9.90
2022-08-17T13:28:49.580Z,9.18
2022-08-17T13:29:55.329Z,7.40
2022-08-17T13:31:27.820Z,7.90
2022-08-17T13:32:35.887Z,7.60
2022-08-17T13:33:44.815Z,8.85
2022-08-17T13:35:12.012Z,7.55
2022-08-17T13:36:10.162Z,6.72
2022-08-17T13:37:26.966Z,6.75
2022-08-17T13:38:45.593Z,8.38
2022-08-17T13:39:47.272Z,7.70
2022-08-17T13:40:53.099Z,6.57
2022-08-17T13:41:56.064Z,8.68
2022-08-17T13:42:58.486Z,7.55
2022-08-17T13:44:00.985Z,9.75
2022-08-17T13:45:02.768Z,9.05
2022-08-17T13:46:31.090Z,8.23
2022-08-17T13:47:33.254Z,10.30
2022-08-17T13:48:35.158Z,8.93
2022-08-17T13:49:48.417Z,10.52
2022-08-17T13:50:56.873Z,7.60
2022-08-17T13:51:58.954Z,8.30
2022-08-17T13:53:14.942Z,9.23
2022-08-17T13:54:34.990Z,8.40
2022-08-17T13:55:36.740Z,8.55
2022-08-17T13:57:14.676Z,8.25
2022-08-17T13:58:25.852Z,9.07
2022-08-17T13:59:53.346Z,9.38
2022-08-17T14:00:58.103Z,9.23
2022-08-17T14:02:00.115Z,8.93
2022-08-17T14:03:04.024Z,8.85
2022-08-17T14:04:18.003Z,10.95
2022-08-17T14:05:20.894Z,7.80
2022-08-17T14:06:51.518Z,8.85
2022-08-17T14:08:01.233Z,9.23
2022-08-17T14:09:04.255Z,9.05
2022-08-17T14:10:13.601Z,7.40
2022-08-17T14:11:17.289Z,7.80
2022-08-17T14:12:24.754Z,8.13
2022-08-17T14:13:26.585Z,9.27
2022-08-17T14:14:29.284Z,7.97
2022-08-17T14:15:53.976Z,10.20
2022-08-17T14:16:54.300Z,9.23
2022-08-17T14:17:56.069Z,8.02
2022-08-17T14:18:57.778Z,8.20
2022-08-17T14:19:59.822Z,7.13
2022-08-17T14:21:01.498Z,6.60
2022-08-17T14:22:03.978Z,8.38
2022-08-17T14:23:06.067Z,7.25
2022-08-17T14:24:10.961Z,6.20
2022-08-17T14:25:15.505Z,8.90
2022-08-17T14:26:17.754Z,8.95
2022-08-17T14:27:20.537Z,7.43
2022-08-17T14:28:22.210Z,7.85
2022-08-17T14:29:26.018Z,7.65
2022-08-17T14:30:29.703Z,7.93
2022-08-17T14:31:36.828Z,7.82
2022-08-17T14:32:41.289Z,9.07
2022-08-17T14:33:42.994Z,7.88
2022-08-17T14:34:46.064Z,9.55
2022-08-17T14:35:48.147Z,7.85
2022-08-17T14:36:49.944Z,7.85
2022-08-17T14:37:52.734Z,8.77
2022-08-17T14:38:54.685Z,8.88
2022-08-17T14:40:01.520Z,8.95
2022-08-17T14:41:04.645Z,7.20
2022-08-17T14:42:06.495Z,8.07
2022-08-17T14:43:08.768Z,7.97
2022-08-17T14:44:12.435Z,7.20
2022-08-17T14:45:31.695Z,8.00
2022-08-17T14:46:34.813Z,7.75
2022-08-17T14:47:38.746Z,7.65
2022-08-17T14:48:42.862Z,9.05
2022-08-17T14:49:48.401Z,7.72
2022-08-17T14:50:50.108Z,7.25
2022-08-17T14:51:52.004Z,6.57
2022-08-17T14:52:56.087Z,6.63
2022-08-17T14:53:59.932Z,6.55
2022-08-17T14:55:02.293Z,7.93
2022-08-17T14:56:04.608Z,9.38
2022-08-17T14:57:32.883Z,7.13
2022-08-17T14:58:29.642Z,9.02
2022-08-17T14:59:32.077Z,7.03
2022-08-17T15:00:34.085Z,7.40
2022-08-17T15:01:36.799Z,8.50
2022-08-17T15:04:11.606Z,7.40
2022-08-17T15:05:16.501Z,8.38
2022-08-17T15:06:18.133Z,7.93
2022-08-17T15:07:20.477Z,7.68
2022-08-17T15:08:28.268Z,8.27
2022-08-17T15:09:30.812Z,5.75
2022-08-17T15:10:39.305Z,8.18
2022-08-17T15:11:40.998Z,7.10
2022-08-17T15:12:42.898Z,7.40
2022-08-17T15:13:52.058Z,7.00
2022-08-17T15:14:54.763Z,7.60
2022-08-17T15:15:59.184Z,7.82
2022-08-17T15:17:01.130Z,8.45
2022-08-17T15:18:03.361Z,7.00
2022-08-17T15:19:07.358Z,8.05
2022-08-17T15:20:14.585Z,8.50
2022-08-17T15:21:19.246Z,8.80
2022-08-17T15:22:25.259Z,8.45
2022-08-17T15:23:27.196Z,6.43
2022-08-17T15:24:28.906Z,8.13
2022-08-17T15:25:32.616Z,7.53
2022-08-17T15:26:36.763Z,7.85
2022-08-17T15:27:38.649Z,9.15
2022-08-17T15:28:40.310Z,6.47
2022-08-17T15:29:42.008Z,7.00
2022-08-17T15:30:44.905Z,6.75
2022-08-17T15:31:46.570Z,6.60
2022-08-17T15:32:51.148Z,6.82
2022-08-17T15:33:56.357Z,6.90
2022-08-17T15:35:00.271Z,7.60
2022-08-17T15:36:06.375Z,5.72
2022-08-17T15:37:08.059Z,7.90
2022-08-17T15:38:12.954Z,6.38
2022-08-17T15:39:14.610Z,6.03
2022-08-17T15:40:21.335Z,8.20
2022-08-17T15:41:23.040Z,8.43
2022-08-17T15:42:25.269Z,7.38
2022-08-17T15:43:32.575Z,7.93
2022-08-17T15:44:39.670Z,7.65
2022-08-17T15:45:41.852Z,6.35
2022-08-17T15:46:43.837Z,8.30
2022-08-17T15:47:46.598Z,7.93
2022-08-17T15:48:51.136Z,7.68
2022-08-17T15:49:57.968Z,9.75
2022-08-17T15:51:01.633Z,9.73
2022-08-17T15:52:19.343Z,8.98
2022-08-17T15:53:20.997Z,8.27
2022-08-17T15:54:23.525Z,7.50
2022-08-17T15:55:27.823Z,6.72
2022-08-17T15:56:31.268Z,6.40
2022-08-17T15:57:33.803Z,8.02
2022-08-17T15:58:37.852Z,6.93
2022-08-17T15:59:40.323Z,6.55
2022-08-17T16:00:49.389Z,6.40
2022-08-17T16:03:13.737Z,7.45
2022-08-17T16:03:58.318Z,6.50
2022-08-17T16:04:44.420Z,7.97
2022-08-17T16:05:50.189Z,6.35
2022-08-17T16:06:52.286Z,8.25
2022-08-17T16:07:55.386Z,6.20
2022-08-17T16:08:57.704Z,8.40
2022-08-17T16:09:59.437Z,8.07
2022-08-17T16:11:02.817Z,7.50
2022-08-17T16:12:13.204Z,8.68
2022-08-17T16:13:17.410Z,6.55
2022-08-17T16:14:19.682Z,7.57
2022-08-17T16:15:21.467Z,7.70
2022-08-17T16:16:23.735Z,7.40
2022-08-17T16:17:39.027Z,9.32
2022-08-17T16:18:44.993Z,7.55
2022-08-17T16:19:46.880Z,8.18
2022-08-17T16:20:48.805Z,8.02
2022-08-17T16:21:50.535Z,6.90
2022-08-17T16:22:52.566Z,8.27
2022-08-17T16:24:01.201Z,9.20
2022-08-17T16:25:07.445Z,6.93
2022-08-17T16:26:09.089Z,7.40
2022-08-17T16:27:11.699Z,7.57
2022-08-17T16:28:16.397Z,6.80
2022-08-17T16:29:18.288Z,9.63
2022-08-17T16:30:22.752Z,10.27
2022-08-17T16:31:24.511Z,7.18
2022-08-17T16:32:31.956Z,7.93
2022-08-17T16:33:34.938Z,8.00
2022-08-17T16:34:36.645Z,8.20
2022-08-17T16:35:38.884Z,7.97
2022-08-17T16:36:41.560Z,6.85
2022-08-17T16:37:57.124Z,7.20
2022-08-17T16:39:01.357Z,6.75
2022-08-17T16:40:05.905Z,9.00
2022-08-17T16:41:07.871Z,6.40
2022-08-17T16:42:27.163Z,8.63
2022-08-17T16:43:29.987Z,8.45
2022-08-17T16:44:32.273Z,7.55
2022-08-17T16:45:36.486Z,6.93
2022-08-17T16:46:39.948Z,8.93
2022-08-17T16:47:49.934Z,7.43
2022-08-17T16:48:52.020Z,8.25
2022-08-17T16:49:53.820Z,8.02
2022-08-17T16:51:03.503Z,8.38
2022-08-17T16:52:10.330Z,7.68
2022-08-17T16:53:18.909Z,6.15
2022-08-17T16:54:22.083Z,8.68
2022-08-17T16:55:23.960Z,7.45
2022-08-17T16:56:25.778Z,6.55
2022-08-17T16:57:29.742Z,7.75
2022-08-17T16:58:31.386Z,6.93
2022-08-17T16:59:40.708Z,7.35
2022-08-17T17:00:45.252Z,7.35
2022-08-17T17:01:47.765Z,8.73
2022-08-17T17:02:49.768Z,8.32
2022-08-17T17:03:58.163Z,6.93
2022-08-17T17:05:09.187Z,8.75
2022-08-17T17:06:39.685Z,6.88
2022-08-17T17:08:00.774Z,7.80
2022-08-17T17:09:16.334Z,8.90
2022-08-17T17:10:22.505Z,7.18
2022-08-17T17:11:24.206Z,9.43
2022-08-17T17:13:00.837Z,8.75
2022-08-17T17:13:57.817Z,9.63
2022-08-17T17:15:01.644Z,9.93
2022-08-17T17:16:18.590Z,9.80
2022-08-17T17:17:46.554Z,9.35
2022-08-17T17:19:15.724Z,10.40
2022-08-17T17:20:28.924Z,9.77
2022-08-17T17:21:44.081Z,8.88
2022-08-17T17:23:00.777Z,9.68
2022-08-17T17:24:13.114Z,13.38
2022-08-17T17:25:36.557Z,9.15
2022-08-17T17:27:02.857Z,8.88
2022-08-17T17:28:26.178Z,8.35
2022-08-17T17:29:48.660Z,8.25
2022-08-17T17:31:24.840Z,10.25
2022-08-17T17:32:45.493Z,9.70
2022-08-17T17:33:52.838Z,8.10
2022-08-17T17:35:05.488Z,9.15
2022-08-17T17:36:22.388Z,7.97
2022-08-17T17:37:32.316Z,9.57
2022-08-17T17:38:52.148Z,8.75
2022-08-17T17:39:58.029Z,9.10
2022-08-17T17:41:14.113Z,9.68
2022-08-17T17:42:20.694Z,8.50
2022-08-17T17:43:38.808Z,7.72
2022-08-17T17:44:46.678Z,7.25
2022-08-17T17:45:51.088Z,10.98
2022-08-17T17:46:58.153Z,7.90
2022-08-17T17:47:59.839Z,7.88
2022-08-17T17:49:01.558Z,7.28
2022-08-17T17:50:05.874Z,9.10
2022-08-17T17:52:08.810Z,7.95
2022-08-17T17:53:02.893Z,9.20
2022-08-17T17:54:20.433Z,8.32
2022-08-17T17:55:41.127Z,8.68
2022-08-17T17:56:46.062Z,6.53
2022-08-17T17:58:06.441Z,6.50
2022-08-17T17:59:13.014Z,9.98
2022-08-17T18:00:23.537Z,6.72
2022-08-17T18:01:44.948Z,8.35
2022-08-17T18:03:09.658Z,7.90
2022-08-17T18:04:25.135Z,7.90
2022-08-17T18:06:12.421Z,8.55
2022-08-17T18:07:40.072Z,7.45
2022-08-17T18:08:52.816Z,8.25
2022-08-17T18:10:19.854Z,8.43
2022-08-17T18:11:51.699Z,7.60
2022-08-17T18:13:07.947Z,9.30
2022-08-17T18:14:46.621Z,8.80
2022-08-17T18:15:51.618Z,7.28
2022-08-17T18:16:56.206Z,7.45
2022-08-17T18:18:14.553Z,9.18
2022-08-17T18:19:22.448Z,9.32
2022-08-17T18:20:35.934Z,10.20
2022-08-17T18:21:52.133Z,7.72